createdAt,value
2017-08-30T03:01:24.037Z,85.00
2017-08-30T03:03:52.428Z,85.00
2017-08-30T03:06:20.777Z,85.10
2017-08-30T03:08:49.146Z,85.00
2017-08-30T03:11:17.497Z,84.90
2017-08-30T03:13:45.850Z,84.80
2017-08-30T03:16:14.220Z,84.80
2017-08-30T03:18:42.573Z,85.00
2017-08-30T03:21:11.955Z,85.40
2017-08-30T03:23:40.474Z,84.90
2017-08-30T03:26:08.823Z,84.90
2017-08-30T03:28:37.180Z,85.30
2017-08-30T03:31:05.568Z,85.70
2017-08-30T03:33:34.692Z,85.90
2017-08-30T03:36:03.100Z,85.90
2017-08-30T03:38:31.482Z,85.50
2017-08-30T03:40:59.833Z,85.70
2017-08-30T03:43:28.252Z,85.80
2017-08-30T03:45:56.933Z,86.10
2017-08-30T03:48:25.379Z,86.00
2017-08-30T03:50:53.725Z,86.00
2017-08-30T03:53:22.882Z,85.80
2017-08-30T03:55:51.046Z,85.80
2017-08-30T03:58:19.389Z,85.70
2017-08-30T04:00:47.757Z,85.90
2017-08-30T04:03:16.105Z,85.80
2017-08-30T04:05:44.459Z,85.70
2017-08-30T04:08:12.845Z,86.00
2017-08-30T04:10:41.199Z,86.10
2017-08-30T04:13:09.548Z,86.10
2017-08-30T04:15:37.914Z,86.10
2017-08-30T04:18:06.384Z,86.20
2017-08-30T04:20:34.756Z,85.70
2017-08-30T04:23:03.132Z,86.10
2017-08-30T04:25:31.514Z,86.20
2017-08-30T04:28:00.196Z,86.20
2017-08-30T04:30:28.382Z,86.20
2017-08-30T04:32:56.728Z,86.30
2017-08-30T04:35:25.081Z,86.20
2017-08-30T04:37:53.450Z,86.20
2017-08-30T04:40:21.803Z,86.10
2017-08-30T04:42:50.157Z,86.00
2017-08-30T04:45:18.521Z,86.00
2017-08-30T04:47:46.873Z,86.10
2017-08-30T04:50:15.312Z,86.30
2017-08-30T04:52:43.692Z,86.00
2017-08-30T04:55:12.049Z,86.10
2017-08-30T04:57:40.396Z,86.00
2017-08-30T05:00:08.756Z,85.90
2017-08-30T05:02:37.108Z,86.20
2017-08-30T05:05:05.471Z,86.20
2017-08-30T05:07:33.865Z,85.80
2017-08-30T05:10:02.224Z,85.60
2017-08-30T05:12:30.582Z,85.60
2017-08-30T05:14:59.014Z,85.90
2017-08-30T05:17:27.370Z,85.60
2017-08-30T05:19:55.712Z,86.00
2017-08-30T05:22:24.089Z,85.80
2017-08-30T05:24:52.441Z,85.90
2017-08-30T05:27:20.893Z,85.50
2017-08-30T05:29:49.251Z,85.20
2017-08-30T05:32:17.669Z,85.00
2017-08-30T05:34:46.029Z,85.00
2017-08-30T05:37:14.395Z,85.00
2017-08-30T05:39:42.751Z,84.80
2017-08-30T05:42:11.109Z,84.70
2017-08-30T05:44:39.523Z,84.60
2017-08-30T05:47:07.865Z,84.50
2017-08-30T05:49:36.252Z,84.40
2017-08-30T05:52:05.384Z,84.10
2017-08-30T05:54:33.756Z,84.10
2017-08-30T05:57:02.104Z,84.00
2017-08-30T05:59:30.481Z,83.80
2017-08-30T06:01:59.620Z,83.70
2017-08-30T06:04:27.986Z,83.60
2017-08-30T06:06:56.354Z,83.20
2017-08-30T06:09:24.708Z,82.90
2017-08-30T06:11:53.062Z,82.50
2017-08-30T06:14:21.440Z,82.30
2017-08-30T06:16:49.829Z,81.90
2017-08-30T06:19:18.202Z,81.30
2017-08-30T06:21:46.593Z,81.20
2017-08-30T06:24:14.952Z,80.60
2017-08-30T06:26:43.317Z,80.60
2017-08-30T06:29:11.693Z,79.70
2017-08-30T06:31:40.113Z,79.20
2017-08-30T06:34:08.471Z,78.20
2017-08-30T06:36:36.657Z,77.50
2017-08-30T06:39:04.329Z,76.80
2017-08-30T06:41:32.697Z,76.70
2017-08-30T06:44:01.070Z,74.20
2017-08-30T06:46:29.431Z,72.30
2017-08-30T06:48:57.790Z,70.50
2017-08-30T06:51:26.220Z,70.20
2017-08-30T06:53:54.590Z,69.30
2017-08-30T06:56:22.934Z,68.20
2017-08-30T06:58:51.296Z,68.40
2017-08-30T07:01:20.414Z,66.40
2017-08-30T07:03:48.769Z,66.40
2017-08-30T07:06:17.920Z,64.30
2017-08-30T07:08:46.296Z,64.20
2017-08-30T07:11:14.654Z,64.70
2017-08-30T07:13:43.022Z,63.80
2017-08-30T07:16:11.380Z,63.60
2017-08-30T07:18:39.732Z,62.40
2017-08-30T07:21:08.141Z,61.20
2017-08-30T07:23:36.755Z,61.20
2017-08-30T07:26:05.107Z,59.70
2017-08-30T07:28:34.263Z,58.20
2017-08-30T07:31:02.966Z,58.10
2017-08-30T07:33:31.311Z,57.90
2017-08-30T07:35:59.501Z,57.60
2017-08-30T07:38:27.849Z,57.10
2017-08-30T07:40:56.197Z,56.80
2017-08-30T07:43:24.571Z,54.80
2017-08-30T07:45:52.955Z,55.00
2017-08-30T07:48:21.755Z,56.20
2017-08-30T07:50:50.205Z,53.70
2017-08-30T07:53:18.602Z,54.40
2017-08-30T07:55:50.917Z,52.80
2017-08-30T07:58:19.481Z,52.50
2017-08-30T08:00:48.683Z,53.80
2017-08-30T08:03:17.832Z,51.80
2017-08-30T08:05:48.404Z,51.70
2017-08-30T08:08:17.021Z,52.80
2017-08-30T08:10:45.677Z,52.50
2017-08-30T08:13:14.801Z,52.30
2017-08-30T08:15:43.152Z,52.20
2017-08-30T08:18:11.538Z,51.00
2017-08-30T08:20:40.412Z,50.50
2017-08-30T08:23:09.731Z,49.40
2017-08-30T08:25:38.193Z,47.30
2017-08-30T08:28:07.517Z,50.00
2017-08-30T08:30:35.909Z,49.80
2017-08-30T08:33:04.404Z,46.90
2017-08-30T08:35:32.820Z,46.10
2017-08-30T08:38:02.000Z,46.60
2017-08-30T08:40:30.433Z,46.70
2017-08-30T08:42:59.567Z,43.40
2017-08-30T08:45:28.039Z,44.00
2017-08-30T08:47:58.056Z,43.10
2017-08-30T08:50:26.434Z,42.30
2017-08-30T08:52:54.855Z,43.80
2017-08-30T08:55:23.476Z,40.60
2017-08-30T08:57:51.826Z,42.60
2017-08-30T09:00:20.178Z,40.60
2017-08-30T09:02:48.542Z,39.50
2017-08-30T09:05:16.892Z,41.40
2017-08-30T09:07:45.251Z,42.60
2017-08-30T09:10:13.647Z,39.90
2017-08-30T09:12:42.087Z,39.30
2017-08-30T09:15:10.467Z,41.00
2017-08-30T09:17:38.899Z,41.40
2017-08-30T09:20:07.285Z,41.00
2017-08-30T09:22:35.721Z,39.10
2017-08-30T09:25:04.227Z,39.90
2017-08-30T09:27:32.577Z,40.40
2017-08-30T09:30:00.956Z,43.40
2017-08-30T09:32:29.521Z,43.30
2017-08-30T09:34:57.881Z,41.90
2017-08-30T09:37:26.292Z,44.30
2017-08-30T09:39:54.661Z,42.00
2017-08-30T09:42:23.017Z,42.10
2017-08-30T09:44:51.374Z,38.80
2017-08-30T09:47:19.414Z,39.50
2017-08-30T09:49:47.859Z,38.70
2017-08-30T09:52:16.300Z,41.80
2017-08-30T09:54:44.668Z,36.50
2017-08-30T09:57:13.022Z,37.90
2017-08-30T09:59:41.367Z,36.80
2017-08-30T10:02:09.734Z,35.90
2017-08-30T10:04:38.079Z,34.80
2017-08-30T10:07:06.434Z,35.10
2017-08-30T10:09:34.784Z,34.40
2017-08-30T10:12:03.193Z,35.70
2017-08-30T10:14:32.258Z,36.00
2017-08-30T10:17:00.621Z,37.60
2017-08-30T10:19:28.978Z,35.20
2017-08-30T10:21:57.321Z,34.00
2017-08-30T10:24:25.694Z,33.00
2017-08-30T10:26:54.040Z,29.70
2017-08-30T10:29:22.398Z,30.90
2017-08-30T10:31:50.765Z,30.00
2017-08-30T10:34:19.121Z,31.50
2017-08-30T10:36:47.468Z,32.90
2017-08-30T10:39:15.839Z,33.40
2017-08-30T10:41:44.460Z,29.30
2017-08-30T10:44:12.916Z,31.20
2017-08-30T10:46:41.105Z,30.70
2017-08-30T10:49:09.456Z,31.40
2017-08-30T10:51:37.805Z,34.90
2017-08-30T10:54:07.928Z,32.00
2017-08-30T10:56:36.308Z,31.70
2017-08-30T10:59:04.698Z,33.30
2017-08-30T11:01:33.070Z,35.90
2017-08-30T11:04:01.250Z,33.70
2017-08-30T11:06:29.606Z,32.30
2017-08-30T11:08:57.980Z,33.70
2017-08-30T11:11:26.329Z,34.60
2017-08-30T11:13:54.675Z,36.30
2017-08-30T11:16:23.050Z,37.10
2017-08-30T11:18:51.397Z,37.40
2017-08-30T11:21:19.917Z,38.40
2017-08-30T11:23:49.093Z,34.10
2017-08-30T11:26:17.681Z,34.00
2017-08-30T11:28:45.847Z,31.00
2017-08-30T11:31:14.217Z,29.00
2017-08-30T11:33:42.598Z,29.90
2017-08-30T11:36:14.790Z,27.90
2017-08-30T11:38:43.141Z,27.60
2017-08-30T11:41:11.499Z,29.50
2017-08-30T11:43:40.277Z,29.90
2017-08-30T11:46:08.693Z,27.60
2017-08-30T11:48:37.050Z,27.10
2017-08-30T11:51:05.445Z,26.70
2017-08-30T11:53:33.813Z,27.70
2017-08-30T11:56:02.170Z,27.60
2017-08-30T11:58:30.586Z,28.10
2017-08-30T12:00:59.509Z,27.80
2017-08-30T12:03:28.639Z,29.10
2017-08-30T12:05:56.992Z,29.20
2017-08-30T12:08:25.358Z,26.60
2017-08-30T12:10:53.812Z,26.70
2017-08-30T12:13:22.733Z,28.80
2017-08-30T12:15:51.152Z,26.50
2017-08-30T12:18:19.488Z,26.70
2017-08-30T12:20:47.844Z,26.80
2017-08-30T12:23:16.244Z,27.70
2017-08-30T12:25:44.605Z,27.80
2017-08-30T12:28:13.049Z,25.10
2017-08-30T12:30:42.188Z,26.20
2017-08-30T12:33:11.179Z,26.40
2017-08-30T12:35:39.565Z,24.40
2017-08-30T12:38:13.440Z,24.70
2017-08-30T12:40:42.358Z,25.00
2017-08-30T12:43:10.726Z,26.50
2017-08-30T12:45:39.652Z,26.20
2017-08-30T12:48:08.559Z,24.10
2017-08-30T12:50:37.478Z,24.20
2017-08-30T12:53:06.510Z,23.90
2017-08-30T12:55:35.464Z,23.90
2017-08-30T12:58:04.395Z,24.40
2017-08-30T13:00:33.338Z,25.50
2017-08-30T13:03:02.258Z,24.00
2017-08-30T13:05:31.282Z,24.50
2017-08-30T13:08:00.238Z,23.10
2017-08-30T13:10:28.583Z,23.20
2017-08-30T13:12:56.943Z,21.80
2017-08-30T13:15:25.890Z,23.20
2017-08-30T13:17:54.806Z,24.90
2017-08-30T13:20:23.162Z,23.30
2017-08-30T13:22:51.533Z,23.70
2017-08-30T13:25:20.450Z,23.30
2017-08-30T13:27:49.361Z,23.80
2017-08-30T13:30:18.297Z,25.80
2017-08-30T13:32:47.217Z,23.80
2017-08-30T13:35:16.135Z,25.50
2017-08-30T13:37:45.337Z,28.10
2017-08-30T13:40:14.253Z,26.00
2017-08-30T13:42:43.149Z,26.40
2017-08-30T13:45:12.083Z,25.20
2017-08-30T13:47:40.429Z,25.90
2017-08-30T13:50:09.597Z,25.70
2017-08-30T13:52:38.551Z,26.60
2017-08-30T13:55:07.169Z,25.60
2017-08-30T13:57:36.097Z,25.20
2017-08-30T14:00:04.333Z,25.90
2017-08-30T14:02:33.249Z,25.80
2017-08-30T14:05:02.153Z,25.80
2017-08-30T14:07:31.315Z,26.00
2017-08-30T14:10:00.209Z,26.70
2017-08-30T14:12:29.141Z,27.40
2017-08-30T14:14:58.097Z,28.00
2017-08-30T14:17:26.469Z,27.20
2017-08-30T14:19:54.824Z,27.90
2017-08-30T14:22:23.217Z,28.20
2017-08-30T14:24:51.569Z,29.70
2017-08-30T14:27:19.919Z,28.90
2017-08-30T14:29:48.296Z,29.90
2017-08-30T14:32:16.652Z,31.00
2017-08-30T14:34:45.018Z,32.60
2017-08-30T14:37:13.610Z,33.00
2017-08-30T14:39:41.960Z,34.50
2017-08-30T14:42:10.308Z,35.50
2017-08-30T14:44:38.691Z,35.30
2017-08-30T14:47:07.053Z,35.60
2017-08-30T14:49:35.416Z,37.60
2017-08-30T14:52:03.787Z,38.30
2017-08-30T14:54:32.837Z,38.30
2017-08-30T14:57:01.185Z,39.20
2017-08-30T14:59:30.318Z,38.80
2017-08-30T15:01:58.668Z,38.70
2017-08-30T15:04:27.023Z,39.50
2017-08-30T15:06:55.038Z,40.40
2017-08-30T15:09:23.397Z,40.30
2017-08-30T15:11:51.754Z,41.10
2017-08-30T15:14:20.221Z,41.60
2017-08-30T15:16:48.609Z,43.60
2017-08-30T15:19:16.969Z,41.30
2017-08-30T15:21:45.384Z,42.10
2017-08-30T15:24:13.745Z,42.20
2017-08-30T15:26:42.130Z,43.20
2017-08-30T15:29:10.500Z,43.00
2017-08-30T15:31:38.872Z,41.70
2017-08-30T15:34:07.229Z,42.30
2017-08-30T15:36:35.626Z,42.00
2017-08-30T15:39:03.295Z,43.30
2017-08-30T15:41:31.657Z,42.90
2017-08-30T15:44:00.026Z,43.10
2017-08-30T15:46:28.448Z,45.60
2017-08-30T15:48:56.798Z,44.00
2017-08-30T15:51:26.833Z,42.10
2017-08-30T15:53:55.213Z,40.30
2017-08-30T15:56:23.569Z,41.20
2017-08-30T15:58:51.947Z,37.80
2017-08-30T16:01:20.365Z,38.10
2017-08-30T16:03:48.723Z,39.30
2017-08-30T16:06:17.089Z,39.50
2017-08-30T16:08:45.493Z,39.30
2017-08-30T16:11:13.866Z,39.30
2017-08-30T16:13:42.480Z,40.30
2017-08-30T16:16:10.830Z,41.10
2017-08-30T16:18:39.188Z,41.20
2017-08-30T16:21:07.554Z,41.40
2017-08-30T16:23:35.904Z,41.00
2017-08-30T16:26:04.266Z,41.50
2017-08-30T16:28:33.395Z,42.10
2017-08-30T16:31:01.743Z,42.10
2017-08-30T16:33:30.093Z,42.20
2017-08-30T16:35:58.523Z,41.90
2017-08-30T16:38:27.645Z,43.40
2017-08-30T16:40:56.002Z,43.30
2017-08-30T16:43:24.402Z,43.90
2017-08-30T16:45:52.752Z,42.60
2017-08-30T16:48:21.379Z,42.60
2017-08-30T16:50:49.741Z,42.40
2017-08-30T16:53:18.080Z,42.70
2017-08-30T16:55:47.124Z,43.20
2017-08-30T16:58:15.485Z,44.50
2017-08-30T17:00:43.661Z,47.20
2017-08-30T17:03:12.012Z,45.50
2017-08-30T17:05:40.391Z,44.80
2017-08-30T17:08:09.005Z,45.10
2017-08-30T17:10:38.114Z,45.90
2017-08-30T17:13:06.748Z,45.90
2017-08-30T17:15:35.114Z,46.60
2017-08-30T17:18:03.969Z,47.60
2017-08-30T17:20:32.336Z,48.60
2017-08-30T17:23:00.698Z,49.50
2017-08-30T17:25:29.047Z,50.50
2017-08-30T17:27:57.231Z,51.30
2017-08-30T17:30:25.572Z,51.90
2017-08-30T17:32:53.932Z,52.50
2017-08-30T17:35:23.062Z,53.60
2017-08-30T17:37:51.422Z,53.50
2017-08-30T17:40:19.786Z,54.10
2017-08-30T17:42:48.413Z,54.50
2017-08-30T17:45:16.756Z,54.90
2017-08-30T17:47:44.946Z,55.30
2017-08-30T17:50:13.314Z,55.50
2017-08-30T17:52:41.672Z,56.00
2017-08-30T17:55:10.135Z,56.30
2017-08-30T17:57:38.552Z,56.50
2017-08-30T18:00:06.721Z,57.00
2017-08-30T18:02:35.068Z,57.40
2017-08-30T18:05:03.446Z,57.60
2017-08-30T18:07:31.813Z,57.90
2017-08-30T18:10:00.166Z,58.10
2017-08-30T18:12:28.525Z,57.90
2017-08-30T18:14:56.873Z,57.70
2017-08-30T18:17:25.227Z,57.90
2017-08-30T18:19:54.365Z,57.80
2017-08-30T18:22:22.714Z,57.80
2017-08-30T18:24:51.077Z,58.10
2017-08-30T18:27:19.453Z,58.40
2017-08-30T18:29:47.811Z,58.60
2017-08-30T18:32:16.165Z,58.90
2017-08-30T18:34:44.350Z,61.10
2017-08-30T18:37:12.961Z,61.30
2017-08-30T18:39:41.309Z,60.60
2017-08-30T18:42:09.668Z,59.40
2017-08-30T18:44:38.088Z,59.20
2017-08-30T18:47:07.197Z,58.70
2017-08-30T18:49:35.562Z,58.70
2017-08-30T18:52:03.906Z,58.70
2017-08-30T18:54:32.320Z,58.70
2017-08-30T18:57:00.680Z,59.00
2017-08-30T18:59:29.032Z,59.40
2017-08-30T19:01:57.385Z,59.70
2017-08-30T19:04:26.708Z,60.80
2017-08-30T19:06:55.053Z,62.40
2017-08-30T19:09:23.404Z,62.70
2017-08-30T19:11:51.767Z,64.30
2017-08-30T19:14:20.117Z,65.20
2017-08-30T19:16:48.503Z,65.80
2017-08-30T19:19:16.869Z,66.20
2017-08-30T19:21:45.033Z,67.80
2017-08-30T19:24:13.201Z,68.80
2017-08-30T19:26:41.581Z,69.10
2017-08-30T19:29:09.925Z,69.90
2017-08-30T19:31:38.322Z,70.20
2017-08-30T19:34:06.746Z,70.00
2017-08-30T19:36:35.107Z,70.40
2017-08-30T19:39:03.109Z,70.80
2017-08-30T19:41:31.485Z,71.00
2017-08-30T19:43:59.834Z,70.70
2017-08-30T19:46:28.200Z,71.30
2017-08-30T19:48:56.577Z,71.50
2017-08-30T19:51:24.942Z,71.60
2017-08-30T19:53:53.110Z,72.90
2017-08-30T19:56:22.258Z,71.60
2017-08-30T19:58:50.416Z,71.60
2017-08-30T20:01:18.785Z,72.40
2017-08-30T20:03:47.155Z,72.30
2017-08-30T20:06:15.505Z,71.80
2017-08-30T20:08:43.861Z,72.30
2017-08-30T20:11:12.317Z,72.50
2017-08-30T20:13:40.662Z,73.50
2017-08-30T20:16:09.096Z,73.80
2017-08-30T20:18:37.568Z,73.80
2017-08-30T20:21:05.935Z,74.20
2017-08-30T20:23:36.080Z,74.40
2017-08-30T20:26:04.552Z,74.50
2017-08-30T20:28:32.910Z,74.40
2017-08-30T20:31:01.275Z,74.20
2017-08-30T20:33:29.632Z,74.40
2017-08-30T20:35:58.767Z,75.10
2017-08-30T20:38:27.120Z,75.10
2017-08-30T20:40:55.488Z,74.50
2017-08-30T20:43:24.647Z,75.50
2017-08-30T20:45:53.004Z,75.50
2017-08-30T20:48:21.379Z,75.80
2017-08-30T20:50:49.994Z,75.50
2017-08-30T20:53:18.638Z,76.10
2017-08-30T20:55:47.013Z,76.10
2017-08-30T20:58:15.441Z,76.00
2017-08-30T21:00:43.616Z,76.40
2017-08-30T21:03:11.997Z,76.40
2017-08-30T21:05:40.549Z,76.50
2017-08-30T21:08:09.109Z,76.80
2017-08-30T21:10:37.745Z,76.60
2017-08-30T21:13:06.332Z,76.70
2017-08-30T21:15:34.982Z,77.10
2017-08-30T21:18:03.376Z,77.50
2017-08-30T21:20:31.742Z,77.90
2017-08-30T21:23:00.157Z,78.00
2017-08-30T21:25:28.530Z,78.10
2017-08-30T21:27:56.904Z,78.10
2017-08-30T21:30:25.258Z,78.50
2017-08-30T21:32:53.632Z,78.60
2017-08-30T21:35:21.982Z,78.90
2017-08-30T21:37:50.432Z,79.30
2017-08-30T21:40:18.800Z,79.60
2017-08-30T21:42:47.183Z,80.00
2017-08-30T21:45:16.309Z,80.80
2017-08-30T21:47:44.680Z,81.30
2017-08-30T21:50:13.029Z,80.60
2017-08-30T21:52:41.387Z,80.90
2017-08-30T21:55:09.749Z,81.00
2017-08-30T21:57:38.105Z,81.10
2017-08-30T22:00:06.458Z,81.20
2017-08-30T22:02:34.825Z,81.60
2017-08-30T22:05:03.185Z,81.50
2017-08-30T22:07:31.804Z,81.90
2017-08-30T22:10:00.280Z,83.20
2017-08-30T22:12:28.640Z,82.80
2017-08-30T22:14:56.992Z,82.10
2017-08-30T22:17:25.354Z,82.00
2017-08-30T22:19:53.720Z,82.20
2017-08-30T22:22:22.180Z,82.20
2017-08-30T22:24:50.564Z,82.20
2017-08-30T22:27:18.950Z,82.70
2017-08-30T22:29:47.317Z,82.60
2017-08-30T22:32:15.695Z,82.90
2017-08-30T22:34:44.049Z,82.80
2017-08-30T22:37:12.461Z,82.50
2017-08-30T22:39:40.793Z,83.20
2017-08-30T22:42:09.145Z,82.60
2017-08-30T22:44:38.320Z,82.50
2017-08-30T22:47:06.692Z,82.40
2017-08-30T22:49:35.049Z,82.40
2017-08-30T22:52:03.408Z,82.90
2017-08-30T22:54:31.784Z,82.60
2017-08-30T22:57:00.140Z,82.10
2017-08-30T22:59:28.493Z,82.40
2017-08-30T23:01:56.863Z,81.90
2017-08-30T23:04:24.877Z,82.20
2017-08-30T23:06:53.228Z,82.60
2017-08-30T23:09:21.709Z,82.90
2017-08-30T23:11:50.074Z,83.10
2017-08-30T23:14:18.234Z,83.30
2017-08-30T23:16:46.606Z,83.40
2017-08-30T23:19:14.956Z,83.10
2017-08-30T23:21:43.409Z,83.10
2017-08-30T23:24:11.870Z,83.60
2017-08-30T23:26:40.225Z,83.40
2017-08-30T23:29:08.573Z,83.30
2017-08-30T23:31:37.017Z,83.20
2017-08-30T23:34:05.400Z,83.00
2017-08-30T23:36:33.777Z,83.00
2017-08-30T23:39:02.153Z,83.20
2017-08-30T23:41:30.505Z,82.80
2017-08-30T23:43:58.857Z,82.90
2017-08-30T23:46:28.000Z,83.50
2017-08-30T23:48:56.357Z,82.80
2017-08-30T23:51:24.519Z,82.40
2017-08-30T23:53:52.706Z,82.40
2017-08-30T23:56:21.057Z,82.80
2017-08-30T23:58:49.228Z,82.60
